sensor_id;sensor_type;location;lat;lon;timestamp;pressure;altitude;pressure_sealevel;temperature;humidity
69737;BME280;64476;55.004;73.342;2023-05-10T00:00:34;101814.25;;;2.55;35.53
69737;BME280;64476;55.004;73.342;2023-05-10T00:03:36;101831.88;;;2.66;35.66
69737;BME280;64476;55.004;73.342;2023-05-10T00:06:37;101795.41;;;2.51;35.75
69737;BME280;64476;55.004;73.342;2023-05-10T00:09:39;101823.69;;;2.73;35.72
69737;BME280;64476;55.004;73.342;2023-05-10T00:12:41;101797.63;;;2.59;35.91
69737;BME280;64476;55.004;73.342;2023-05-10T00:15:43;101801.22;;;2.57;36.01
69737;BME280;64476;55.004;73.342;2023-05-10T00:18:45;101828.34;;;2.84;35.88
69737;BME280;64476;55.004;73.342;2023-05-10T00:21:46;101783.19;;;2.53;36.04
69737;BME280;64476;55.004;73.342;2023-05-10T00:24:48;101834.31;;;2.86;35.67
69737;BME280;64476;55.004;73.342;2023-05-10T00:27:50;101809.88;;;2.73;35.56
69737;BME280;64476;55.004;73.342;2023-05-10T00:30:51;101812.41;;;2.74;36.14
69737;BME280;64476;55.004;73.342;2023-05-10T00:33:53;101832.44;;;2.88;35.68
69737;BME280;64476;55.004;73.342;2023-05-10T00:36:55;101794.66;;;2.67;36.13
69737;BME280;64476;55.004;73.342;2023-05-10T00:39:57;101836.19;;;3.00;36.33
69737;BME280;64476;55.004;73.342;2023-05-10T00:42:59;101830.38;;;2.95;35.85
69737;BME280;64476;55.004;73.342;2023-05-10T00:46:01;101807.66;;;2.83;36.36
69737;BME280;64476;55.004;73.342;2023-05-10T00:49:03;101795.91;;;2.75;36.11
69737;BME280;64476;55.004;73.342;2023-05-10T00:52:05;101817.94;;;2.84;36.00
69737;BME280;64476;55.004;73.342;2023-05-10T00:55:07;101806.44;;;2.72;36.08
69737;BME280;64476;55.004;73.342;2023-05-10T00:58:11;101829.25;;;2.83;35.96
69737;BME280;64476;55.004;73.342;2023-05-10T01:01:13;101850.41;;;2.93;36.06
69737;BME280;64476;55.004;73.342;2023-05-10T01:04:15;101841.16;;;2.87;36.09
69737;BME280;64476;55.004;73.342;2023-05-10T01:10:25;101881.25;;;3.32;35.69
69737;BME280;64476;55.004;73.342;2023-05-10T01:13:33;101797.31;;;2.98;35.72
69737;BME280;64476;55.004;73.342;2023-05-10T01:16:38;101880.53;;;3.62;35.81
69737;BME280;64476;55.004;73.342;2023-05-10T01:19:40;101854.06;;;3.55;35.42
69737;BME280;64476;55.004;73.342;2023-05-10T01:29:33;101889.84;;;3.97;35.19
69737;BME280;64476;55.004;73.342;2023-05-10T01:33:19;101858.66;;;3.82;35.42
69737;BME280;64476;55.004;73.342;2023-05-10T01:36:35;101877.63;;;3.99;35.13
69737;BME280;64476;55.004;73.342;2023-05-10T01:43:24;101890.28;;;4.37;34.94
69737;BME280;64476;55.004;73.342;2023-05-10T01:46:36;101878.09;;;4.38;34.96
69737;BME280;64476;55.004;73.342;2023-05-10T01:49:50;101891.88;;;4.54;34.53
69737;BME280;64476;55.004;73.342;2023-05-10T01:53:01;101904.13;;;4.68;34.75
69737;BME280;64476;55.004;73.342;2023-05-10T01:56:05;101904.72;;;4.73;34.65
69737;BME280;64476;55.004;73.342;2023-05-10T01:59:17;101907.88;;;4.78;34.36
69737;BME280;64476;55.004;73.342;2023-05-10T02:02:21;101863.34;;;4.53;34.76
69737;BME280;64476;55.004;73.342;2023-05-10T02:05:24;101904.75;;;4.87;34.49
69737;BME280;64476;55.004;73.342;2023-05-10T02:08:27;101889.38;;;4.83;34.53
69737;BME280;64476;55.004;73.342;2023-05-10T02:11:29;101879.53;;;4.88;34.32
69737;BME280;64476;55.004;73.342;2023-05-10T02:14:35;101891.81;;;5.00;34.10
69737;BME280;64476;55.004;73.342;2023-05-10T02:17:39;101900.97;;;5.22;34.25
69737;BME280;64476;55.004;73.342;2023-05-10T02:20:45;101881.97;;;5.19;33.93
69737;BME280;64476;55.004;73.342;2023-05-10T02:23:50;101901.88;;;5.35;33.79
69737;BME280;64476;55.004;73.342;2023-05-10T02:26:54;101891.56;;;5.48;33.67
69737;BME280;64476;55.004;73.342;2023-05-10T02:29:59;101869.88;;;5.47;33.64
69737;BME280;64476;55.004;73.342;2023-05-10T02:36:09;101886.88;;;5.67;33.29
69737;BME280;64476;55.004;73.342;2023-05-10T02:39:13;101890.09;;;5.85;32.92
69737;BME280;64476;55.004;73.342;2023-05-10T02:42:18;101912.94;;;6.08;33.25
69737;BME280;64476;55.004;73.342;2023-05-10T02:45:24;101890.41;;;6.07;32.89
69737;BME280;64476;55.004;73.342;2023-05-10T02:48:27;101911.72;;;6.28;32.55
69737;BME280;64476;55.004;73.342;2023-05-10T02:51:32;101903.00;;;6.42;32.74
69737;BME280;64476;55.004;73.342;2023-05-10T02:54:49;101891.75;;;6.54;32.26
69737;BME280;64476;55.004;73.342;2023-05-10T02:57:56;101891.56;;;6.70;32.50
69737;BME280;64476;55.004;73.342;2023-05-10T03:01:00;101869.41;;;6.76;31.87
69737;BME280;64476;55.004;73.342;2023-05-10T03:04:02;101867.13;;;6.84;31.82
69737;BME280;64476;55.004;73.342;2023-05-10T03:07:04;101851.75;;;6.92;31.39
69737;BME280;64476;55.004;73.342;2023-05-10T03:10:06;101888.00;;;7.22;31.80
69737;BME280;64476;55.004;73.342;2023-05-10T03:24:12;101863.69;;;7.58;30.54
69737;BME280;64476;55.004;73.342;2023-05-10T03:27:20;101824.59;;;7.44;30.22
69737;BME280;64476;55.004;73.342;2023-05-10T03:30:24;101844.13;;;7.64;30.40
69737;BME280;64476;55.004;73.342;2023-05-10T03:33:26;101826.34;;;7.56;29.93
69737;BME280;64476;55.004;73.342;2023-05-10T03:36:28;101805.75;;;7.52;29.68
69737;BME280;64476;55.004;73.342;2023-05-10T03:39:31;101828.56;;;7.74;29.06
69737;BME280;64476;55.004;73.342;2023-05-10T03:42:34;101868.38;;;8.03;28.56
69737;BME280;64476;55.004;73.342;2023-05-10T03:45:36;101856.63;;;8.08;28.07
69737;BME280;64476;55.004;73.342;2023-05-10T03:51:54;101842.47;;;8.11;27.19
69737;BME280;64476;55.004;73.342;2023-05-10T03:54:56;101849.06;;;8.17;27.57
69737;BME280;64476;55.004;73.342;2023-05-10T03:57:58;101856.38;;;8.36;27.52
69737;BME280;64476;55.004;73.342;2023-05-10T04:01:00;101854.84;;;8.44;27.38
69737;BME280;64476;55.004;73.342;2023-05-10T04:04:03;101844.88;;;8.49;27.54
69737;BME280;64476;55.004;73.342;2023-05-10T04:07:06;101824.88;;;8.48;27.27
69737;BME280;64476;55.004;73.342;2023-05-10T04:10:09;101777.72;;;8.37;26.82
69737;BME280;64476;55.004;73.342;2023-05-10T04:13:11;101868.91;;;9.01;26.55
69737;BME280;64476;55.004;73.342;2023-05-10T04:16:13;101827.88;;;8.77;26.64
69737;BME280;64476;55.004;73.342;2023-05-10T04:19:15;101862.25;;;9.08;25.62
69737;BME280;64476;55.004;73.342;2023-05-10T04:22:16;101845.31;;;9.01;25.63
69737;BME280;64476;55.004;73.342;2023-05-10T04:25:18;101841.88;;;9.12;25.53
69737;BME280;64476;55.004;73.342;2023-05-10T04:28:21;101740.94;;;8.61;25.22
69737;BME280;64476;55.004;73.342;2023-05-10T04:31:31;101783.59;;;8.97;25.58
69737;BME280;64476;55.004;73.342;2023-05-10T04:35:20;101747.84;;;8.85;25.32
69737;BME280;64476;55.004;73.342;2023-05-10T04:38:54;101829.09;;;9.52;24.56
69737;BME280;64476;55.004;73.342;2023-05-10T04:45:29;101814.09;;;9.86;24.55
69737;BME280;64476;55.004;73.342;2023-05-10T04:48:32;101776.13;;;9.90;24.32
69737;BME280;64476;55.004;73.342;2023-05-10T04:55:10;101784.78;;;10.02;24.17
69737;BME280;64476;55.004;73.342;2023-05-10T04:58:19;101817.16;;;10.23;23.96
69737;BME280;64476;55.004;73.342;2023-05-10T05:01:21;101819.16;;;10.31;24.13
69737;BME280;64476;55.004;73.342;2023-05-10T05:04:31;101809.16;;;10.46;23.88
69737;BME280;64476;55.004;73.342;2023-05-10T05:07:33;101807.78;;;10.63;23.49
69737;BME280;64476;55.004;73.342;2023-05-10T05:10:35;101775.00;;;10.46;23.19
69737;BME280;64476;55.004;73.342;2023-05-10T05:13:36;101806.31;;;10.80;22.90
69737;BME280;64476;55.004;73.342;2023-05-10T05:16:40;101737.31;;;10.57;22.75
69737;BME280;64476;55.004;73.342;2023-05-10T05:19:42;101722.03;;;10.71;22.88
69737;BME280;64476;55.004;73.342;2023-05-10T05:22:47;101783.53;;;11.30;22.53
69737;BME280;64476;55.004;73.342;2023-05-10T05:25:49;101783.28;;;11.53;22.19
69737;BME280;64476;55.004;73.342;2023-05-10T05:28:50;101750.03;;;11.42;22.12
69737;BME280;64476;55.004;73.342;2023-05-10T05:31:55;101747.41;;;11.52;21.64
69737;BME280;64476;55.004;73.342;2023-05-10T05:34:57;101760.97;;;11.57;21.96
69737;BME280;64476;55.004;73.342;2023-05-10T05:38:00;101764.44;;;11.57;22.13
69737;BME280;64476;55.004;73.342;2023-05-10T05:41:02;101766.31;;;11.66;22.19
69737;BME280;64476;55.004;73.342;2023-05-10T05:44:04;101758.13;;;11.79;22.21
69737;BME280;64476;55.004;73.342;2023-05-10T05:47:07;101761.03;;;11.66;22.08
69737;BME280;64476;55.004;73.342;2023-05-10T05:50:09;101753.91;;;11.57;21.86
69737;BME280;64476;55.004;73.342;2023-05-10T05:53:11;101711.66;;;11.49;22.09
69737;BME280;64476;55.004;73.342;2023-05-10T05:56:12;101749.81;;;11.84;21.47
69737;BME280;64476;55.004;73.342;2023-05-10T05:59:14;101724.75;;;11.80;21.33
69737;BME280;64476;55.004;73.342;2023-05-10T06:02:18;101726.66;;;11.87;21.13
69737;BME280;64476;55.004;73.342;2023-05-10T06:05:20;101708.22;;;11.68;21.22
69737;BME280;64476;55.004;73.342;2023-05-10T06:08:22;101706.84;;;11.74;21.05
69737;BME280;64476;55.004;73.342;2023-05-10T06:11:25;101717.25;;;11.85;21.00
69737;BME280;64476;55.004;73.342;2023-05-10T06:14:29;101715.00;;;12.00;21.16
69737;BME280;64476;55.004;73.342;2023-05-10T06:17:31;101716.91;;;12.17;21.17
69737;BME280;64476;55.004;73.342;2023-05-10T06:20:33;101719.94;;;12.22;20.75
69737;BME280;64476;55.004;73.342;2023-05-10T06:23:34;101716.31;;;12.23;20.97
69737;BME280;64476;55.004;73.342;2023-05-10T06:26:37;101697.59;;;12.26;20.66
69737;BME280;64476;55.004;73.342;2023-05-10T06:29:38;101703.06;;;12.52;20.59
69737;BME280;64476;55.004;73.342;2023-05-10T06:32:46;101668.97;;;12.41;20.59
69737;BME280;64476;55.004;73.342;2023-05-10T06:35:47;101672.91;;;12.64;20.56
69737;BME280;64476;55.004;73.342;2023-05-10T06:38:49;101703.38;;;13.04;20.08
69737;BME280;64476;55.004;73.342;2023-05-10T06:41:52;101668.38;;;12.84;20.09
69737;BME280;64476;55.004;73.342;2023-05-10T06:44:54;101681.34;;;12.96;20.07
69737;BME280;64476;55.004;73.342;2023-05-10T06:47:56;101685.22;;;13.01;19.97
69737;BME280;64476;55.004;73.342;2023-05-10T06:50:58;101685.84;;;12.85;19.66
69737;BME280;64476;55.004;73.342;2023-05-10T06:54:00;101649.00;;;12.76;19.81
69737;BME280;64476;55.004;73.342;2023-05-10T06:57:03;101677.00;;;13.22;19.65
69737;BME280;64476;55.004;73.342;2023-05-10T07:00:06;101669.09;;;13.40;18.77
69737;BME280;64476;55.004;73.342;2023-05-10T07:03:08;101659.50;;;13.57;19.09
69737;BME280;64476;55.004;73.342;2023-05-10T07:06:10;101653.53;;;13.55;18.85
69737;BME280;64476;55.004;73.342;2023-05-10T07:09:11;101663.38;;;13.71;18.98
69737;BME280;64476;55.004;73.342;2023-05-10T07:12:14;101661.22;;;13.84;18.69
69737;BME280;64476;55.004;73.342;2023-05-10T07:15:16;101646.19;;;13.84;18.56
69737;BME280;64476;55.004;73.342;2023-05-10T07:18:18;101641.19;;;14.07;18.55
69737;BME280;64476;55.004;73.342;2023-05-10T07:21:19;101638.34;;;14.27;18.22
69737;BME280;64476;55.004;73.342;2023-05-10T07:24:29;101654.16;;;14.53;18.14
69737;BME280;64476;55.004;73.342;2023-05-10T07:27:32;101657.81;;;14.60;17.67
69737;BME280;64476;55.004;73.342;2023-05-10T07:30:34;101639.75;;;14.55;17.91
69737;BME280;64476;55.004;73.342;2023-05-10T07:33:35;101640.97;;;14.61;17.41
69737;BME280;64476;55.004;73.342;2023-05-10T07:36:37;101612.78;;;14.35;17.58
69737;BME280;64476;55.004;73.342;2023-05-10T07:39:43;101611.03;;;14.18;17.78
69737;BME280;64476;55.004;73.342;2023-05-10T07:42:44;101610.88;;;14.20;17.77
69737;BME280;64476;55.004;73.342;2023-05-10T07:45:46;101573.19;;;14.09;17.79
69737;BME280;64476;55.004;73.342;2023-05-10T07:48:48;101590.03;;;14.08;17.68
69737;BME280;64476;55.004;73.342;2023-05-10T07:51:49;101603.16;;;14.26;18.24
69737;BME280;64476;55.004;73.342;2023-05-10T07:54:59;101594.75;;;14.39;18.13
69737;BME280;64476;55.004;73.342;2023-05-10T07:58:00;101598.13;;;14.49;17.90
69737;BME280;64476;55.004;73.342;2023-05-10T08:01:02;101588.56;;;14.56;17.81
69737;BME280;64476;55.004;73.342;2023-05-10T08:04:04;101602.94;;;14.70;18.09
69737;BME280;64476;55.004;73.342;2023-05-10T08:07:06;101573.84;;;14.70;18.16
69737;BME280;64476;55.004;73.342;2023-05-10T08:10:08;101591.03;;;14.66;17.89
69737;BME280;64476;55.004;73.342;2023-05-10T08:13:10;101600.28;;;14.54;17.89
69737;BME280;64476;55.004;73.342;2023-05-10T08:16:12;101594.09;;;14.37;17.53
69737;BME280;64476;55.004;73.342;2023-05-10T08:19:14;101576.00;;;14.16;17.69
69737;BME280;64476;55.004;73.342;2023-05-10T08:22:21;101542.91;;;14.04;17.91
69737;BME280;64476;55.004;73.342;2023-05-10T08:25:23;101560.34;;;14.23;18.07
69737;BME280;64476;55.004;73.342;2023-05-10T08:28:25;101521.47;;;14.15;17.45
69737;BME280;64476;55.004;73.342;2023-05-10T08:31:29;101540.38;;;14.28;17.80
69737;BME280;64476;55.004;73.342;2023-05-10T08:34:31;101544.72;;;14.46;17.53
69737;BME280;64476;55.004;73.342;2023-05-10T08:37:33;101512.00;;;14.55;17.51
69737;BME280;64476;55.004;73.342;2023-05-10T08:40:42;101535.72;;;14.89;17.47
69737;BME280;64476;55.004;73.342;2023-05-10T08:43:44;101527.78;;;14.89;17.41
69737;BME280;64476;55.004;73.342;2023-05-10T08:46:49;101496.03;;;14.89;17.54
69737;BME280;64476;55.004;73.342;2023-05-10T08:49:57;101463.13;;;14.75;17.19
69737;BME280;64476;55.004;73.342;2023-05-10T08:53:05;101509.22;;;15.30;16.98
69737;BME280;64476;55.004;73.342;2023-05-10T08:56:07;101508.50;;;15.61;17.18
69737;BME280;64476;55.004;73.342;2023-05-10T08:59:09;101504.34;;;15.74;16.78
69737;BME280;64476;55.004;73.342;2023-05-10T09:02:13;101501.31;;;15.86;16.48
69737;BME280;64476;55.004;73.342;2023-05-10T09:05:15;101484.13;;;15.73;16.67
69737;BME280;64476;55.004;73.342;2023-05-10T09:08:17;101448.91;;;15.65;16.80
69737;BME280;64476;55.004;73.342;2023-05-10T09:11:23;101487.53;;;15.90;16.68
69737;BME280;64476;55.004;73.342;2023-05-10T09:14:33;101481.63;;;15.80;16.51
69737;BME280;64476;55.004;73.342;2023-05-10T09:17:36;101430.41;;;15.40;16.49
69737;BME280;64476;55.004;73.342;2023-05-10T09:20:38;101428.44;;;15.42;16.64
69737;BME280;64476;55.004;73.342;2023-05-10T09:23:47;101446.13;;;15.42;16.52
69737;BME280;64476;55.004;73.342;2023-05-10T09:27:06;101432.13;;;15.33;16.51
69737;BME280;64476;55.004;73.342;2023-05-10T09:30:09;101451.25;;;15.43;16.44
69737;BME280;64476;55.004;73.342;2023-05-10T09:33:11;101424.66;;;15.28;16.65
69737;BME280;64476;55.004;73.342;2023-05-10T09:36:13;101396.41;;;15.13;16.67
69737;BME280;64476;55.004;73.342;2023-05-10T09:39:15;101440.31;;;15.46;16.47
69737;BME280;64476;55.004;73.342;2023-05-10T09:42:18;101396.34;;;15.29;16.24
69737;BME280;64476;55.004;73.342;2023-05-10T09:45:20;101436.13;;;15.68;16.45
69737;BME280;64476;55.004;73.342;2023-05-10T09:48:24;101433.91;;;15.80;16.34
69737;BME280;64476;55.004;73.342;2023-05-10T09:51:26;101371.31;;;15.40;16.56
69737;BME280;64476;55.004;73.342;2023-05-10T09:54:31;101414.91;;;15.76;16.37
69737;BME280;64476;55.004;73.342;2023-05-10T09:57:33;101418.28;;;15.93;16.31
69737;BME280;64476;55.004;73.342;2023-05-10T10:00:36;101374.31;;;15.76;16.07
69737;BME280;64476;55.004;73.342;2023-05-10T10:03:44;101419.84;;;16.11;16.06
69737;BME280;64476;55.004;73.342;2023-05-10T10:07:00;101399.06;;;15.99;15.52
69737;BME280;64476;55.004;73.342;2023-05-10T10:10:02;101395.53;;;15.99;15.78
69737;BME280;64476;55.004;73.342;2023-05-10T10:13:05;101393.03;;;16.06;15.71
69737;BME280;64476;55.004;73.342;2023-05-10T10:16:11;101369.34;;;16.04;15.57
69737;BME280;64476;55.004;73.342;2023-05-10T10:19:13;101396.09;;;16.40;15.50
69737;BME280;64476;55.004;73.342;2023-05-10T10:22:15;101368.66;;;16.33;15.42
69737;BME280;64476;55.004;73.342;2023-05-10T10:25:19;101322.75;;;16.10;15.44
69737;BME280;64476;55.004;73.342;2023-05-10T10:31:59;101358.53;;;16.28;15.27
69737;BME280;64476;55.004;73.342;2023-05-10T10:35:04;101380.88;;;16.34;15.38
69737;BME280;64476;55.004;73.342;2023-05-10T10:38:08;101370.63;;;16.31;15.21
69737;BME280;64476;55.004;73.342;2023-05-10T10:41:27;101347.06;;;16.13;15.28
69737;BME280;64476;55.004;73.342;2023-05-10T10:48:29;101379.34;;;16.40;15.34
69737;BME280;64476;55.004;73.342;2023-05-10T10:51:31;101300.66;;;15.94;15.68
69737;BME280;64476;55.004;73.342;2023-05-10T10:54:35;101377.16;;;16.43;15.71
69737;BME280;64476;55.004;73.342;2023-05-10T11:00:41;101329.66;;;15.96;15.43
69737;BME280;64476;55.004;73.342;2023-05-10T11:07:20;101383.53;;;16.34;15.57
69737;BME280;64476;55.004;73.342;2023-05-10T11:10:24;101388.19;;;16.32;16.09
69737;BME280;64476;55.004;73.342;2023-05-10T11:13:44;101347.69;;;15.77;15.91
69737;BME280;64476;55.004;73.342;2023-05-10T11:16:46;101371.06;;;15.66;16.15
69737;BME280;64476;55.004;73.342;2023-05-10T11:23:13;101381.25;;;15.46;16.53
69737;BME280;64476;55.004;73.342;2023-05-10T11:26:17;101363.75;;;15.28;16.29
69737;BME280;64476;55.004;73.342;2023-05-10T11:30:00;101372.03;;;15.34;16.21
69737;BME280;64476;55.004;73.342;2023-05-10T11:33:02;101373.88;;;15.25;16.26
69737;BME280;64476;55.004;73.342;2023-05-10T11:36:05;101364.81;;;15.19;16.58
69737;BME280;64476;55.004;73.342;2023-05-10T11:39:12;101365.97;;;15.17;16.59
69737;BME280;64476;55.004;73.342;2023-05-10T11:42:14;101341.53;;;14.98;16.63
69737;BME280;64476;55.004;73.342;2023-05-10T11:45:16;101354.44;;;15.01;16.73
69737;BME280;64476;55.004;73.342;2023-05-10T11:48:19;101369.13;;;15.12;16.95
69737;BME280;64476;55.004;73.342;2023-05-10T11:51:25;101367.00;;;15.08;16.97
69737;BME280;64476;55.004;73.342;2023-05-10T11:54:29;101362.06;;;14.88;16.53
69737;BME280;64476;55.004;73.342;2023-05-10T11:57:30;101364.59;;;14.81;16.48
69737;BME280;64476;55.004;73.342;2023-05-10T12:00:32;101328.84;;;14.61;16.83
69737;BME280;64476;55.004;73.342;2023-05-10T12:03:43;101306.25;;;14.42;16.73
69737;BME280;64476;55.004;73.342;2023-05-10T12:06:53;101315.16;;;14.49;16.89
69737;BME280;64476;55.004;73.342;2023-05-10T12:13:31;101364.88;;;14.62;16.77
69737;BME280;64476;55.004;73.342;2023-05-10T12:23:52;101342.59;;;14.40;16.62
69737;BME280;64476;55.004;73.342;2023-05-10T12:26:55;101319.47;;;14.26;16.58
69737;BME280;64476;55.004;73.342;2023-05-10T12:29:59;101281.00;;;13.91;16.67
69737;BME280;64476;55.004;73.342;2023-05-10T12:33:01;101332.34;;;14.21;16.60
69737;BME280;64476;55.004;73.342;2023-05-10T12:36:04;101315.34;;;14.07;16.66
69737;BME280;64476;55.004;73.342;2023-05-10T12:39:08;101251.38;;;13.62;16.46
69737;BME280;64476;55.004;73.342;2023-05-10T12:42:10;101285.09;;;13.77;16.79
69737;BME280;64476;55.004;73.342;2023-05-10T12:45:12;101308.06;;;13.93;16.74
69737;BME280;64476;55.004;73.342;2023-05-10T12:48:14;101310.22;;;13.97;16.68
69737;BME280;64476;55.004;73.342;2023-05-10T12:51:16;101288.56;;;13.85;16.79
69737;BME280;64476;55.004;73.342;2023-05-10T12:54:30;101299.16;;;13.94;16.77
69737;BME280;64476;55.004;73.342;2023-05-10T12:58:08;101296.84;;;13.91;16.53
69737;BME280;64476;55.004;73.342;2023-05-10T13:01:09;101281.97;;;13.81;16.73
69737;BME280;64476;55.004;73.342;2023-05-10T13:04:17;101169.97;;;13.09;16.65
69737;BME280;64476;55.004;73.342;2023-05-10T13:07:19;101259.13;;;13.56;16.47
69737;BME280;64476;55.004;73.342;2023-05-10T13:10:24;101234.84;;;13.44;16.76
69737;BME280;64476;55.004;73.342;2023-05-10T13:13:26;101265.25;;;13.56;16.87
69737;BME280;64476;55.004;73.342;2023-05-10T13:16:29;101263.44;;;13.57;17.03
69737;BME280;64476;55.004;73.342;2023-05-10T13:19:30;101266.72;;;13.59;16.65
69737;BME280;64476;55.004;73.342;2023-05-10T13:22:32;101226.09;;;13.35;16.90
69737;BME280;64476;55.004;73.342;2023-05-10T13:25:34;101200.00;;;13.24;16.69
69737;BME280;64476;55.004;73.342;2023-05-10T13:29:08;101249.41;;;13.56;16.95
69737;BME280;64476;55.004;73.342;2023-05-10T13:32:10;101247.91;;;13.54;17.19
69737;BME280;64476;55.004;73.342;2023-05-10T13:38:45;101248.88;;;13.45;17.30
69737;BME280;64476;55.004;73.342;2023-05-10T13:41:48;101210.72;;;13.23;17.27
69737;BME280;64476;55.004;73.342;2023-05-10T13:44:50;101236.97;;;13.32;17.19
69737;BME280;64476;55.004;73.342;2023-05-10T13:47:56;101174.88;;;12.96;16.97
69737;BME280;64476;55.004;73.342;2023-05-10T13:51:03;101173.72;;;12.98;17.10
69737;BME280;64476;55.004;73.342;2023-05-10T13:54:36;101232.00;;;13.29;17.16
69737;BME280;64476;55.004;73.342;2023-05-10T13:57:45;101167.28;;;12.93;17.48
69737;BME280;64476;55.004;73.342;2023-05-10T14:00:47;101140.19;;;12.74;17.34
69737;BME280;64476;55.004;73.342;2023-05-10T14:03:49;101224.75;;;13.23;17.45
69737;BME280;64476;55.004;73.342;2023-05-10T14:06:50;101226.88;;;13.20;17.53
69737;BME280;64476;55.004;73.342;2023-05-10T14:09:53;101214.47;;;13.12;17.56
69737;BME280;64476;55.004;73.342;2023-05-10T14:12:55;101226.22;;;13.18;17.40
69737;BME280;64476;55.004;73.342;2023-05-10T14:15:57;101209.84;;;13.06;17.66
69737;BME280;64476;55.004;73.342;2023-05-10T14:19:01;101205.72;;;13.03;17.98
69737;BME280;64476;55.004;73.342;2023-05-10T14:22:07;101220.25;;;13.15;17.86
69737;BME280;64476;55.004;73.342;2023-05-10T14:25:09;101192.66;;;12.94;18.19
69737;BME280;64476;55.004;73.342;2023-05-10T14:28:42;101194.00;;;12.98;18.12
69737;BME280;64476;55.004;73.342;2023-05-10T14:31:44;101224.03;;;13.05;18.44
69737;BME280;64476;55.004;73.342;2023-05-10T14:34:46;101211.13;;;12.94;18.38
69737;BME280;64476;55.004;73.342;2023-05-10T14:37:47;101195.78;;;12.89;18.42
69737;BME280;64476;55.004;73.342;2023-05-10T14:40:49;101208.81;;;12.90;18.24
69737;BME280;64476;55.004;73.342;2023-05-10T14:43:51;101192.31;;;12.88;18.25
69737;BME280;64476;55.004;73.342;2023-05-10T14:46:53;101176.09;;;12.75;18.48
69737;BME280;64476;55.004;73.342;2023-05-10T14:49:54;101181.56;;;12.82;18.71
69737;BME280;64476;55.004;73.342;2023-05-10T14:52:58;101153.31;;;12.66;18.86
69737;BME280;64476;55.004;73.342;2023-05-10T14:56:00;101161.06;;;12.67;19.08
69737;BME280;64476;55.004;73.342;2023-05-10T14:59:05;101158.41;;;12.67;19.20
69737;BME280;64476;55.004;73.342;2023-05-10T15:02:06;101133.34;;;12.63;19.03
69737;BME280;64476;55.004;73.342;2023-05-10T15:05:09;101142.28;;;12.71;18.85
69737;BME280;64476;55.004;73.342;2023-05-10T15:08:12;101147.59;;;12.79;19.10
69737;BME280;64476;55.004;73.342;2023-05-10T15:11:14;101114.06;;;12.55;19.23
69737;BME280;64476;55.004;73.342;2023-05-10T15:14:16;101137.00;;;12.62;18.99
69737;BME280;64476;55.004;73.342;2023-05-10T15:17:18;101152.22;;;12.77;18.94
69737;BME280;64476;55.004;73.342;2023-05-10T15:20:19;101130.06;;;12.61;18.92
69737;BME280;64476;55.004;73.342;2023-05-10T15:23:21;101148.72;;;12.68;19.22
69737;BME280;64476;55.004;73.342;2023-05-10T15:26:26;101158.31;;;12.77;19.09
69737;BME280;64476;55.004;73.342;2023-05-10T15:29:27;101150.19;;;12.71;19.16
69737;BME280;64476;55.004;73.342;2023-05-10T15:32:29;101132.41;;;12.64;19.33
69737;BME280;64476;55.004;73.342;2023-05-10T15:35:32;101117.53;;;12.55;19.38
69737;BME280;64476;55.004;73.342;2023-05-10T15:38:34;101127.88;;;12.57;19.12
69737;BME280;64476;55.004;73.342;2023-05-10T15:41:37;101096.38;;;12.39;19.28
69737;BME280;64476;55.004;73.342;2023-05-10T15:44:39;101137.97;;;12.61;19.12
69737;BME280;64476;55.004;73.342;2023-05-10T15:47:41;101134.97;;;12.56;19.46
69737;BME280;64476;55.004;73.342;2023-05-10T15:50:43;101115.16;;;12.44;19.37
69737;BME280;64476;55.004;73.342;2023-05-10T15:57:20;101121.25;;;12.45;19.38
69737;BME280;64476;55.004;73.342;2023-05-10T16:00:28;101098.13;;;12.30;19.81
69737;BME280;64476;55.004;73.342;2023-05-10T16:03:30;101100.78;;;12.30;19.54
69737;BME280;64476;55.004;73.342;2023-05-10T16:06:34;101107.56;;;12.33;20.04
69737;BME280;64476;55.004;73.342;2023-05-10T16:09:36;101074.84;;;12.09;20.05
69737;BME280;64476;55.004;73.342;2023-05-10T16:12:38;101100.56;;;12.24;19.79
69737;BME280;64476;55.004;73.342;2023-05-10T16:15:40;101056.28;;;11.85;19.90
69737;BME280;64476;55.004;73.342;2023-05-10T16:18:43;101088.97;;;12.08;20.54
69737;BME280;64476;55.004;73.342;2023-05-10T16:21:46;101099.41;;;12.18;20.69
69737;BME280;64476;55.004;73.342;2023-05-10T16:24:47;101113.44;;;12.27;21.03
69737;BME280;64476;55.004;73.342;2023-05-10T16:27:49;101129.13;;;12.28;21.42
69737;BME280;64476;55.004;73.342;2023-05-10T16:30:51;101113.28;;;12.20;21.50
69737;BME280;64476;55.004;73.342;2023-05-10T16:33:52;101113.41;;;12.18;21.32
69737;BME280;64476;55.004;73.342;2023-05-10T16:37:26;101126.69;;;12.09;22.12
69737;BME280;64476;55.004;73.342;2023-05-10T16:40:31;101121.16;;;11.94;22.23
69737;BME280;64476;55.004;73.342;2023-05-10T16:43:40;101126.44;;;11.94;21.89
69737;BME280;64476;55.004;73.342;2023-05-10T16:46:42;101135.94;;;11.87;22.58
69737;BME280;64476;55.004;73.342;2023-05-10T16:49:44;101066.41;;;11.54;22.92
69737;BME280;64476;55.004;73.342;2023-05-10T16:52:46;101080.09;;;11.57;23.52
69737;BME280;64476;55.004;73.342;2023-05-10T16:55:48;101094.19;;;11.66;23.86
69737;BME280;64476;55.004;73.342;2023-05-10T16:58:52;101095.81;;;11.67;23.73
69737;BME280;64476;55.004;73.342;2023-05-10T17:01:55;101089.56;;;11.68;23.97
69737;BME280;64476;55.004;73.342;2023-05-10T17:04:56;101058.56;;;11.36;24.49
69737;BME280;64476;55.004;73.342;2023-05-10T17:07:58;101092.38;;;11.49;25.07